Terminal Aerodrome Forecast
Issued by NWS Sterling, VA

Current Version | Previous Version | Graphics & Text | Print | Product List | Glossary On
Versions: 1 2 3 4 5 6 7 8 9 10 11 12 13 14 15 16 17 18 19 20 21
000
FTUS41 KLWX 010500 RRA
TAFDCA
TAF
KDCA 010543Z 0106/0206 18004KT P6SM BKN050 BKN100
     FM011800 16007KT P6SM -SHRA SCT025 OVC050
     FM020000 14005KT P6SM SCT025 OVC050=

USA.gov is the U.S. government's official web portal to all federal, state and local government web resources and services.